Time;durP1;ratioP1;P1;durP2;ratioP2;P2;SDS_P1;SDS_P2;PMS_P1;PMS_P2;Temp;Humidity;BMP_temperature;BMP_pressure;BME280_temperature;BME280_humidity;BME280_pressure;Samples;Min_cycle;Max_cycle;Signal;HPM_P1;HPM_P2
2022/08/20 00:01:23;;;;;;;10.55;4.40;;;19.50;99.90;;;;;;5014700;28;20038;-70
2022/08/20 00:03:49;;;;;;;11.77;4.00;;;20.20;99.90;;;;;;5014619;28;20103;-69
2022/08/20 00:06:18;;;;;;;8.18;3.40;;;19.60;99.90;;;;;;5014273;28;20040;-70
2022/08/20 00:08:43;;;;;;;8.27;3.78;;;19.70;99.90;;;;;;5031168;28;20128;-70
2022/08/20 00:11:12;;;;;;;8.02;3.35;;;19.50;99.90;;;;;;5030756;28;20064;-70
2022/08/20 00:13:43;;;;;;;9.05;4.13;;;19.80;99.90;;;;;;5030835;28;20510;-69
2022/08/20 00:16:09;;;;;;;15.02;4.20;;;19.40;99.90;;;;;;5031136;28;20033;-69
2022/08/20 00:18:36;;;;;;;10.10;4.22;;;19.70;99.90;;;;;;5014189;28;20033;-70
2022/08/20 00:21:03;;;;;;;13.10;4.50;;;20.00;99.90;;;;;;5032022;28;20227;-69
2022/08/20 00:23:29;;;;;;;11.85;3.80;;;19.50;99.90;;;;;;5030863;28;20091;-70
2022/08/20 00:25:54;;;;;;;7.40;3.88;;;19.30;99.90;;;;;;5031763;28;20041;-69
2022/08/20 00:28:20;;;;;;;13.98;4.00;;;19.50;99.90;;;;;;5014115;28;20033;-69
2022/08/20 00:30:47;;;;;;;9.00;3.78;;;19.40;99.90;;;;;;5030600;28;20110;-70
2022/08/20 00:33:16;;;;;;;11.23;3.25;;;20.20;99.90;;;;;;5030714;28;20067;-70
2022/08/20 00:35:46;;;;;;;12.70;4.32;;;20.40;99.90;;;;;;5031376;28;20562;-69
2022/08/20 00:38:12;;;;;;;12.95;4.32;;;19.40;99.90;;;;;;5031783;28;20037;-69
2022/08/20 00:40:42;;;;;;;12.50;4.18;;;19.70;99.90;;;;;;5030744;28;20045;-69
2022/08/20 00:43:26;;;;;;;10.40;4.22;;;19.30;99.90;;;;;;5031710;28;20037;-69
2022/08/20 00:45:55;;;;;;;9.82;3.90;;;19.20;99.90;;;;;;5030313;28;20112;-69
2022/08/20 00:48:22;;;;;;;11.88;4.50;;;19.60;99.90;;;;;;5031755;28;20042;-70
2022/08/20 00:50:48;;;;;;;12.40;4.70;;;19.30;99.90;;;;;;5014345;28;20530;-69
2022/08/20 00:53:14;;;;;;;13.18;5.10;;;19.30;99.90;;;;;;5030434;28;20073;-70
2022/08/20 00:55:40;;;;;;;11.80;4.40;;;19.10;99.90;;;;;;5013987;28;20442;-69
2022/08/20 00:58:08;;;;;;;12.27;5.57;;;18.90;99.90;;;;;;5030284;28;20042;-70
2022/08/20 01:00:44;;;;;;;10.98;5.15;;;19.20;99.90;;;;;;5030259;28;20041;-70
2022/08/20 01:03:14;;;;;;;12.55;5.18;;;19.00;99.90;;;;;;5030217;28;20406;-69
2022/08/20 01:05:43;;;;;;;14.85;4.90;;;19.20;99.90;;;;;;5030011;28;20069;-69
2022/08/20 01:08:10;;;;;;;11.27;5.28;;;19.10;99.90;;;;;;5031364;28;20050;-70
2022/08/20 01:10:38;;;;;;;10.40;4.68;;;20.50;99.90;;;;;;5013805;28;20091;-69
2022/08/20 01:13:12;;;;;;;17.55;5.20;;;19.80;99.90;;;;;;5030414;28;20042;-69
2022/08/20 01:15:40;;;;;;;10.20;4.85;;;19.20;99.90;;;;;;5030119;28;20041;-70
2022/08/20 01:18:10;;;;;;;13.02;4.82;;;19.20;99.90;;;;;;5031447;28;20116;-69
2022/08/20 01:20:40;;;;;;;9.65;5.10;;;19.00;99.90;;;;;;5030110;28;20041;-69
2022/08/20 01:23:28;;;;;;;10.00;4.93;;;19.00;99.90;;;;;;5031239;28;20598;-69
2022/08/20 01:26:01;;;;;;;9.27;4.82;;;19.00;99.90;;;;;;5031323;28;20045;-69
2022/08/20 01:28:30;;;;;;;;;;;19.20;99.90;;;;;;5034544;28;20095;-70
2022/08/20 01:30:56;;;;;;;14.27;6.45;;;19.20;99.90;;;;;;5067285;28;19917;-70
2022/08/20 01:33:22;;;;;;;12.15;4.85;;;20.10;99.90;;;;;;5033670;28;20083;-69
2022/08/20 01:35:49;;;;;;;14.00;4.80;;;19.20;99.90;;;;;;5034696;28;20048;-69
2022/08/20 01:38:15;;;;;;;10.25;5.07;;;20.00;99.90;;;;;;5035065;28;20052;-70
2022/08/20 01:40:53;;;;;;;14.75;5.55;;;19.00;99.90;;;;;;5033771;28;20410;-69
2022/08/20 01:43:19;;;;;;;12.32;5.35;;;19.20;99.90;;;;;;5035143;28;20033;-69
2022/08/20 01:45:45;;;;;;;12.18;5.10;;;18.80;99.90;;;;;;5033314;28;20041;-70
2022/08/20 01:48:12;;;;;;;10.15;4.72;;;19.10;99.90;;;;;;5034682;28;20047;-69
2022/08/20 01:50:43;;;;;;;9.63;5.13;;;18.90;99.90;;;;;;5034662;28;20037;-69
2022/08/20 01:53:14;;;;;;;14.00;5.85;;;19.10;99.90;;;;;;5034887;28;20044;-70
2022/08/20 01:55:39;;;;;;;9.13;5.25;;;18.90;99.90;;;;;;5016911;28;20045;-69
2022/08/20 01:58:05;;;;;;;8.50;4.63;;;18.90;99.90;;;;;;5034593;28;20513;-69
2022/08/20 02:00:31;;;;;;;12.18;5.13;;;18.70;99.90;;;;;;5033472;28;20514;-69
2022/08/20 02:02:57;;;;;;;10.85;4.63;;;18.70;99.90;;;;;;5033284;28;20133;-69
2022/08/20 02:05:23;;;;;;;9.82;5.47;;;18.60;99.90;;;;;;5034313;28;20116;-70
2022/08/20 02:07:49;;;;;;;14.25;4.43;;;18.80;99.90;;;;;;5034176;28;20083;-70
2022/08/20 02:10:16;;;;;;;15.20;5.65;;;18.50;99.90;;;;;;5034443;28;20033;-69
2022/08/20 02:12:42;;;;;;;6.60;3.75;;;18.30;99.90;;;;;;5033118;28;20149;-70
2022/08/20 02:15:11;;;;;;;10.73;4.32;;;18.70;99.90;;;;;;5032664;28;20128;-69
2022/08/20 02:17:38;;;;;;;9.90;4.47;;;18.30;99.90;;;;;;5032802;28;20037;-69
2022/08/20 02:20:12;;;;;;;6.70;3.40;;;18.40;99.90;;;;;;5032898;28;20087;-69
2022/08/20 02:22:51;;;;;;;13.30;3.80;;;18.30;99.90;;;;;;5034373;28;20116;-69
2022/08/20 02:25:19;;;;;;;8.35;3.65;;;18.40;99.90;;;;;;5033823;28;20077;-69
2022/08/20 02:27:47;;;;;;;7.43;3.97;;;18.30;99.90;;;;;;5032625;28;20533;-69
2022/08/20 02:30:17;;;;;;;11.27;4.18;;;19.30;99.90;;;;;;5033814;28;20041;-70
2022/08/20 02:32:43;;;;;;;8.25;3.55;;;18.30;99.90;;;;;;5032890;28;20045;-69
2022/08/20 02:35:12;;;;;;;14.48;5.10;;;18.40;99.90;;;;;;5032509;28;20038;-70
2022/08/20 02:37:40;;;;;;;10.65;4.50;;;18.40;99.90;;;;;;5033841;28;20056;-70
2022/08/20 02:40:08;;;;;;;10.02;4.00;;;18.30;99.90;;;;;;5015187;28;20088;-69
2022/08/20 02:42:35;;;;;;;11.95;4.38;;;17.80;99.90;;;;;;5033824;28;20041;-70
2022/08/20 02:45:05;;;;;;;9.18;3.50;;;18.30;99.90;;;;;;5032138;28;20128;-70
2022/08/20 02:47:31;;;;;;;9.63;3.78;;;18.00;99.90;;;;;;5034059;28;20041;-70
2022/08/20 02:49:58;;;;;;;5.82;3.10;;;18.20;99.90;;;;;;5016454;28;20103;-70
2022/08/20 02:52:24;;;;;;;8.45;3.53;;;18.10;99.90;;;;;;5015986;28;20091;-69
2022/08/20 02:54:51;;;;;;;8.63;3.40;;;18.20;99.90;;;;;;5032031;28;20564;-69
2022/08/20 02:57:19;;;;;;;11.57;4.30;;;18.10;99.90;;;;;;5032065;28;20049;-69
2022/08/20 02:59:46;;;;;;;8.23;3.80;;;18.10;99.90;;;;;;5015748;28;20037;-69
2022/08/20 03:02:13;;;;;;;10.30;2.88;;;19.10;99.90;;;;;;5032510;28;20056;-70
2022/08/20 03:04:39;;;;;;;12.13;4.28;;;18.10;99.90;;;;;;5031820;28;20048;-69
2022/08/20 03:07:06;;;;;;;16.63;4.68;;;18.20;99.90;;;;;;5032088;28;20065;-70
2022/08/20 03:09:31;;;;;;;7.82;3.30;;;18.10;99.90;;;;;;5033327;28;20119;-69
2022/08/20 03:11:57;;;;;;;7.70;3.90;;;17.90;99.90;;;;;;5015367;28;20630;-70
2022/08/20 03:14:22;;;;;;;6.53;3.50;;;18.00;99.90;;;;;;5033062;28;20046;-69
2022/08/20 03:16:49;;;;;;;11.32;3.40;;;18.60;99.90;;;;;;5031671;28;20064;-70
2022/08/20 03:19:15;;;;;;;9.82;3.70;;;18.20;99.90;;;;;;5033210;28;20048;-70
2022/08/20 03:21:41;;;;;;;7.45;3.42;;;18.00;99.90;;;;;;5033020;28;20034;-69
2022/08/20 03:24:07;;;;;;;9.80;3.55;;;18.30;99.90;;;;;;5033174;28;20045;-69
2022/08/20 03:26:32;;;;;;;11.70;4.07;;;17.80;99.90;;;;;;5031601;28;20063;-70
2022/08/20 03:28:58;;;;;;;13.32;3.92;;;18.90;99.90;;;;;;5031874;28;20470;-70
2022/08/20 03:31:24;;;;;;;12.77;3.88;;;17.80;99.90;;;;;;5015129;28;20132;-69
2022/08/20 03:33:49;;;;;;;7.05;3.80;;;17.90;99.90;;;;;;5031294;28;20396;-69
2022/08/20 03:36:15;;;;;;;10.02;3.65;;;18.20;99.90;;;;;;5032556;28;20044;-69
2022/08/20 03:38:40;;;;;;;11.88;4.55;;;17.80;99.90;;;;;;5031402;28;20503;-69
2022/08/20 03:41:06;;;;;;;14.55;4.72;;;17.90;99.90;;;;;;5032548;28;20052;-69
2022/08/20 03:43:34;;;;;;;9.65;3.78;;;17.80;99.90;;;;;;5032678;28;20439;-69
2022/08/20 03:45:59;;;;;;;10.60;3.88;;;17.70;99.90;;;;;;5032334;28;20053;-69
2022/08/20 03:48:25;;;;;;;9.43;3.58;;;17.60;99.90;;;;;;5031244;28;20045;-69
2022/08/20 03:50:51;;;;;;;8.40;2.58;;;17.90;99.90;;;;;;5031126;28;20081;-69
2022/08/20 03:53:17;;;;;;;10.98;3.28;;;17.70;99.90;;;;;;5032271;28;20052;-69
2022/08/20 03:55:47;;;;;;;10.70;3.75;;;18.70;99.90;;;;;;5030869;28;20033;-70
2022/08/20 03:58:15;;;;;;;8.63;3.55;;;18.30;99.90;;;;;;5030832;28;20049;-69
2022/08/20 04:00:47;;;;;;;14.95;4.43;;;18.30;99.90;;;;;;5032127;28;20033;-69
2022/08/20 04:03:14;;;;;;;10.57;4.00;;;19.80;99.90;;;;;;5030878;28;20045;-69
2022/08/20 04:05:41;;;;;;;13.60;3.53;;;17.70;99.90;;;;;;5030657;28;20033;-69
2022/08/20 04:08:17;;;;;;;8.82;3.80;;;17.70;99.90;;;;;;5031976;28;20048;-69
2022/08/20 04:10:44;;;;;;;7.25;3.28;;;17.50;99.90;;;;;;5030985;28;20045;-71
2022/08/20 04:13:10;;;;;;;10.57;3.70;;;17.60;99.90;;;;;;5032000;28;20561;-69
2022/08/20 04:15:36;;;;;;;15.10;4.60;;;17.40;99.90;;;;;;5030749;28;20045;-69
2022/08/20 04:18:06;;;;;;;10.07;4.32;;;17.50;99.90;;;;;;5030596;28;20049;-69
2022/08/20 04:20:33;;;;;;;8.13;4.30;;;17.50;99.90;;;;;;5032335;28;20091;-69
2022/08/20 04:22:59;;;;;;;8.80;3.63;;;17.50;99.90;;;;;;5032025;28;20041;-69
2022/08/20 04:25:25;;;;;;;9.25;3.58;;;17.60;99.90;;;;;;5030409;28;20403;-69
2022/08/20 04:27:50;;;;;;;7.70;2.55;;;17.50;99.90;;;;;;5030595;28;20175;-69
2022/08/20 04:30:18;;;;;;;9.10;2.55;;;17.40;99.90;;;;;;5030703;28;20635;-69
2022/08/20 04:32:44;;;;;;;6.75;2.90;;;18.20;99.90;;;;;;5031998;28;20041;-69
2022/08/20 04:35:14;;;;;;;6.63;2.58;;;17.40;99.90;;;;;;5030285;28;20053;-69
2022/08/20 04:37:40;;;;;;;6.82;2.90;;;17.40;99.90;;;;;;5030570;28;20088;-69
2022/08/20 04:42:55;;;;;;;12.25;3.13;;;17.20;99.90;;;;;;5030684;28;20041;-70
2022/08/20 04:45:21;;;;;;;6.22;2.35;;;17.20;99.90;;;;;;5030428;28;20038;-70
2022/08/20 04:47:48;;;;;;;5.13;2.15;;;17.40;99.90;;;;;;5030592;28;20051;-70
2022/08/20 04:50:14;;;;;;;8.52;2.33;;;17.30;99.90;;;;;;5030418;28;20143;-69
2022/08/20 04:52:40;;;;;;;12.35;2.70;;;17.90;99.90;;;;;;5014123;28;20049;-69
2022/08/20 04:55:07;;;;;;;10.05;2.30;;;17.10;99.90;;;;;;5030032;28;20124;-69
2022/08/20 04:57:36;;;;;;;10.70;2.47;;;17.20;99.90;;;;;;5030127;28;20041;-70
2022/08/20 05:00:08;;;;;;;6.22;2.10;;;17.10;99.90;;;;;;5031731;28;20047;-69
2022/08/20 05:02:34;;;;;;;6.47;2.28;;;17.10;99.90;;;;;;5032112;28;20083;-69
2022/08/20 05:05:00;;;;;;;5.25;2.15;;;17.10;99.90;;;;;;5034035;28;20041;-70
2022/08/20 05:07:26;;;;;;;6.00;2.45;;;17.20;99.90;;;;;;5034151;28;20041;-69
2022/08/20 05:09:52;;;;;;;9.90;2.70;;;16.80;99.90;;;;;;5034135;28;20053;-70
2022/08/20 05:12:18;;;;;;;8.95;3.00;;;17.10;99.90;;;;;;5034183;28;20048;-69
2022/08/20 05:14:45;;;;;;;7.00;2.20;;;16.90;99.90;;;;;;5035303;28;20068;-70
2022/08/20 05:17:13;;;;;;;7.90;2.20;;;17.20;99.90;;;;;;5017547;28;20084;-69
2022/08/20 05:19:40;;;;;;;8.75;2.47;;;16.90;99.90;;;;;;5035382;28;20396;-69
2022/08/20 05:22:05;;;;;;;9.63;2.50;;;17.00;99.90;;;;;;5034015;28;20049;-70
2022/08/20 05:24:31;;;;;;;11.75;3.38;;;16.90;99.90;;;;;;5033607;28;20033;-69
2022/08/20 05:26:59;;;;;;;7.70;2.58;;;16.90;99.90;;;;;;5033844;28;20084;-69
2022/08/20 05:29:26;;;;;;;10.57;2.33;;;18.60;99.90;;;;;;5034023;28;20038;-70
2022/08/20 05:31:52;;;;;;;11.25;2.60;;;16.70;99.90;;;;;;5034127;28;20403;-69
2022/08/20 05:34:18;;;;;;;7.85;2.33;;;16.80;99.90;;;;;;5034752;28;20041;-69
2022/08/20 05:36:49;;;;;;;6.88;2.42;;;17.10;99.90;;;;;;5034834;28;20042;-70
2022/08/20 05:39:19;;;;;;;12.18;2.17;;;17.00;99.90;;;;;;5034882;28;20484;-70
2022/08/20 05:41:45;;;;;;;8.98;2.10;;;17.20;99.90;;;;;;5017127;28;20048;-69
2022/08/20 05:44:14;;;;;;;9.02;2.78;;;17.30;99.90;;;;;;5033316;28;20045;-69
2022/08/20 05:46:42;;;;;;;5.25;1.80;;;18.50;99.90;;;;;;5033871;28;20105;-70
2022/08/20 05:49:09;;;;;;;4.95;1.88;;;17.30;99.90;;;;;;5034788;28;20522;-69
2022/08/20 05:51:35;;;;;;;8.85;1.83;;;17.90;99.90;;;;;;5034842;28;20049;-70
2022/08/20 05:54:02;;;;;;;10.50;2.28;;;18.30;99.90;;;;;;5033166;28;20124;-70
2022/08/20 05:56:29;;;;;;;7.35;1.85;;;17.70;99.90;;;;;;5033221;28;20049;-69
2022/08/20 05:58:55;;;;;;;9.57;2.67;;;18.60;99.90;;;;;;5016740;28;20503;-69
2022/08/20 06:01:20;;;;;;;7.00;1.85;;;17.50;99.90;;;;;;5034603;28;20063;-70
2022/08/20 06:06:31;;;;;;;5.30;1.45;;;17.80;99.90;;;;;;5034492;28;20128;-69
2022/08/20 06:08:56;;;;;;;8.45;2.22;;;19.40;99.90;;;;;;5034642;28;20120;-70
2022/08/20 06:11:22;;;;;;;7.78;1.70;;;19.20;99.90;;;;;;5033030;28;20046;-69
2022/08/20 06:13:47;;;;;;;5.63;1.48;;;17.90;99.90;;;;;;5032840;28;20049;-69
2022/08/20 06:16:13;;;;;;;11.30;3.55;;;18.10;99.90;;;;;;5016234;28;20040;-70
2022/08/20 06:18:39;;;;;;;8.75;2.15;;;18.20;99.90;;;;;;5034037;28;20075;-70
2022/08/20 06:21:05;;;;;;;7.13;2.22;;;18.20;99.90;;;;;;5016662;28;20038;-69
2022/08/20 06:23:30;;;;;;;4.95;1.60;;;18.20;99.90;;;;;;5033043;28;20087;-69
2022/08/20 06:25:56;;;;;;;7.88;1.90;;;19.30;99.90;;;;;;5033862;28;20045;-70
2022/08/20 06:28:22;;;;;;;8.85;1.83;;;18.40;99.90;;;;;;5032855;28;20033;-69
2022/08/20 06:30:47;;;;;;;8.73;2.05;;;18.50;99.90;;;;;;5032966;28;20414;-69
2022/08/20 06:33:13;;;;;;;8.07;1.35;;;18.50;99.90;;;;;;5033925;28;20120;-69
2022/08/20 06:35:39;;;;;;;6.60;1.70;;;18.60;99.90;;;;;;5016065;28;20041;-70
2022/08/20 06:38:05;;;;;;;8.68;1.95;;;19.70;99.90;;;;;;5038710;28;20333;-70
2022/08/20 06:40:32;;;;;;;10.15;2.25;;;18.60;99.90;;;;;;5038795;28;20060;-69
2022/08/20 06:42:58;;;;;;;8.38;2.13;;;18.80;99.90;;;;;;5033119;28;20446;-70
2022/08/20 06:45:28;;;;;;;7.90;1.98;;;18.80;99.90;;;;;;5035793;28;20108;-69
2022/08/20 06:47:57;;;;;;;9.57;2.25;;;18.90;99.90;;;;;;5037642;28;20045;-69
2022/08/20 06:50:27;;;;;;;5.60;1.70;;;18.60;99.90;;;;;;5034009;28;20041;-69
2022/08/20 06:52:53;;;;;;;5.18;1.48;;;18.90;99.90;;;;;;5032897;28;20033;-70
2022/08/20 06:55:19;;;;;;;5.82;1.30;;;19.00;99.90;;;;;;5015467;28;20387;-70
2022/08/20 06:57:46;;;;;;;6.88;1.40;;;20.20;99.90;;;;;;5032227;28;20049;-70
2022/08/20 07:00:16;;;;;;;3.72;1.23;;;19.00;99.90;;;;;;5033369;28;20041;-70
2022/08/20 07:02:42;;;;;;;8.23;1.65;;;19.20;99.90;;;;;;5032182;28;20491;-70
2022/08/20 07:05:09;;;;;;;5.60;1.40;;;20.50;99.90;;;;;;5030972;28;20041;-69
2022/08/20 07:07:36;;;;;;;5.07;1.55;;;19.40;99.90;;;;;;5024783;28;20034;-69
2022/08/20 07:10:07;;;;;;;8.93;1.95;;;19.40;99.90;;;;;;5037323;28;20087;-69
2022/08/20 07:12:36;;;;;;;4.60;1.27;;;19.50;99.90;;;;;;5054129;28;20041;-70
2022/08/20 07:15:04;;;;;;;5.28;1.33;;;20.70;99.90;;;;;;5053557;28;20567;-69
2022/08/20 07:17:30;;;;;;;6.28;1.38;;;20.90;99.90;;;;;;5020011;28;20038;-69
2022/08/20 07:19:56;;;;;;;5.75;1.08;;;19.90;99.90;;;;;;5022018;28;20048;-69
2022/08/20 07:22:21;;;;;;;8.10;1.60;;;19.90;99.90;;;;;;5022393;28;20060;-69
2022/08/20 07:24:47;;;;;;;5.45;1.30;;;20.80;99.90;;;;;;5053555;28;20392;-69
2022/08/20 07:27:13;;;;;;;5.35;1.38;;;19.90;99.90;;;;;;5053872;28;20046;-70
2022/08/20 07:32:35;;;;;;;9.00;1.40;;;20.20;99.90;;;;;;5053517;28;20048;-69
2022/08/20 07:35:06;;;;;;;6.32;1.40;;;20.50;99.90;;;;;;5053355;28;20076;-69
2022/08/20 07:37:41;;;;;;;5.65;1.30;;;20.30;99.90;;;;;;5020702;28;20037;-70
2022/08/20 07:40:13;;;;;;;6.80;1.15;;;20.40;99.90;;;;;;5045966;28;20045;-69
2022/08/20 07:42:39;;;;;;;11.95;2.17;;;20.30;99.90;;;;;;5023940;28;20380;-69
2022/08/20 07:45:10;;;;;;;6.07;1.20;;;21.60;99.90;;;;;;5036824;28;20072;-69
2022/08/20 07:47:38;;;;;;;7.28;1.50;;;20.60;99.90;;;;;;5052315;28;20042;-69
2022/08/20 07:50:05;;;;;;;6.10;1.25;;;20.60;99.90;;;;;;5021964;28;20038;-69
2022/08/20 07:52:34;;;;;;;4.05;1.35;;;20.60;99.90;;;;;;5005282;28;20507;-70
2022/08/20 07:55:03;;;;;;;6.50;1.40;;;21.10;99.90;;;;;;5004384;28;20098;-69
2022/08/20 07:57:29;;;;;;;6.90;1.33;;;20.50;99.90;;;;;;5017191;28;20412;-70
2022/08/20 07:59:58;;;;;;;8.68;1.58;;;20.70;99.90;;;;;;5012787;28;20463;-70
2022/08/20 08:02:27;;;;;;;6.75;1.38;;;21.00;99.90;;;;;;5044253;28;20048;-69
2022/08/20 08:04:53;;;;;;;9.98;1.67;;;20.90;99.90;;;;;;5044218;28;20037;-69
2022/08/20 08:07:20;;;;;;;9.57;2.50;;;20.90;99.90;;;;;;5037259;22;20038;-70
2022/08/20 08:09:48;;;;;;;10.35;1.80;;;22.50;99.90;;;;;;5027454;28;20040;-71
2022/08/20 08:12:14;;;;;;;7.47;2.22;;;21.00;99.90;;;;;;5028367;28;20060;-72
2022/08/20 08:14:43;;;;;;;10.23;1.77;;;21.20;99.90;;;;;;5031520;28;20029;-71
2022/08/20 08:17:11;;;;;;;6.90;2.10;;;21.10;99.90;;;;;;5028870;28;20045;-71
2022/08/20 08:19:41;;;;;;;7.20;1.85;;;22.20;99.90;;;;;;5010117;28;20068;-71
2022/08/20 08:22:13;;;;;;;5.75;1.42;;;22.20;99.90;;;;;;5010079;28;20030;-72
2022/08/20 08:24:40;;;;;;;8.38;1.58;;;22.20;99.90;;;;;;5010246;28;20049;-71
2022/08/20 08:27:07;;;;;;;4.57;1.33;;;21.80;99.90;;;;;;5010217;28;20095;-72
2022/08/20 08:29:34;;;;;;;5.93;2.03;;;22.00;99.90;;;;;;5011802;28;20077;-72
2022/08/20 08:32:02;;;;;;;7.45;1.77;;;21.60;99.90;;;;;;5010957;28;20065;-72
2022/08/20 08:34:27;;;;;;;8.70;2.20;;;21.80;99.90;;;;;;4993611;28;20037;-73
2022/08/20 08:36:53;;;;;;;5.90;1.85;;;21.40;99.90;;;;;;5009398;28;20057;-72
2022/08/20 08:39:19;;;;;;;6.22;1.42;;;23.20;99.90;;;;;;5010359;28;20037;-72
2022/08/20 08:41:48;;;;;;;7.47;2.08;;;22.40;99.90;;;;;;5010456;28;20046;-72
2022/08/20 08:44:37;;;;;;;8.15;2.38;;;22.80;99.90;;;;;;5010125;28;20415;-73
2022/08/20 08:47:28;;;;;;;6.95;1.33;;;21.80;99.90;;;;;;5010464;28;20369;-72
2022/08/20 08:49:56;;;;;;;4.55;1.38;;;21.90;99.90;;;;;;5011728;28;20041;-72
2022/08/20 08:52:27;;;;;;;8.02;1.70;;;21.90;99.90;;;;;;5011694;28;20038;-72
2022/08/20 08:54:57;;;;;;;7.47;1.67;;;21.90;99.90;;;;;;5011274;28;20041;-72
2022/08/20 08:57:23;;;;;;;11.63;2.03;;;21.80;99.90;;;;;;5009842;28;20084;-72
2022/08/20 08:59:56;;;;;;;7.82;1.58;;;22.90;99.90;;;;;;5010145;28;20049;-72
2022/08/20 09:02:27;;;;;;;6.38;1.45;;;23.20;99.90;;;;;;5010319;28;20081;-72
2022/08/20 09:04:55;;;;;;;7.80;1.75;;;22.10;99.90;;;;;;5009986;28;20041;-72
2022/08/20 09:07:23;;;;;;;4.43;1.40;;;22.00;99.80;;;;;;5011016;28;20042;-72
2022/08/20 09:09:49;;;;;;;6.53;2.03;;;22.00;99.90;;;;;;5009186;28;20092;-72
2022/08/20 09:12:27;;;;;;;7.25;1.50;;;23.30;99.90;;;;;;5011014;28;20042;-72
2022/08/20 09:14:53;;;;;;;5.07;1.20;;;22.10;99.50;;;;;;5008370;28;20514;-72
2022/08/20 09:17:21;;;;;;;7.05;1.63;;;22.20;99.60;;;;;;5009864;28;20499;-72
2022/08/20 09:19:48;;;;;;;6.15;1.08;;;22.00;99.30;;;;;;5010056;28;20120;-72
2022/08/20 09:22:17;;;;;;;4.93;1.10;;;23.10;99.10;;;;;;5010138;28;20045;-72
2022/08/20 09:24:43;;;;;;;7.85;1.27;;;22.70;98.80;;;;;;5009740;28;20504;-72
2022/08/20 09:27:09;;;;;;;9.88;1.83;;;22.30;98.60;;;;;;5009255;28;20049;-72
2022/08/20 09:29:35;;;;;;;9.88;1.52;;;22.20;98.80;;;;;;5009472;28;20399;-72
2022/08/20 09:32:08;;;;;;;8.05;1.38;;;22.20;99.10;;;;;;5010918;28;20045;-72
2022/08/20 09:34:43;;;;;;;5.55;1.50;;;22.30;98.50;;;;;;5009141;28;20100;-72
2022/08/20 09:37:09;;;;;;;7.88;1.73;;;22.60;99.10;;;;;;5010110;28;20581;-72
2022/08/20 09:39:35;;;;;;;9.60;1.25;;;22.70;99.10;;;;;;5009942;28;20560;-72
2022/08/20 09:42:10;;;;;;;9.93;1.58;;;22.70;98.70;;;;;;5009982;28;20491;-72
2022/08/20 09:44:36;;;;;;;4.65;1.30;;;22.70;98.20;;;;;;5009771;28;20423;-72
2022/08/20 09:47:02;;;;;;;8.15;1.80;;;22.60;98.40;;;;;;5011190;28;20038;-71
2022/08/20 09:49:28;;;;;;;5.93;2.03;;;22.20;98.70;;;;;;5012190;28;20042;-72
2022/08/20 09:51:54;;;;;;;7.18;1.48;;;23.80;99.40;;;;;;5013606;28;20129;-72
2022/08/20 09:54:20;;;;;;;5.88;1.42;;;22.30;98.90;;;;;;4996760;28;20042;-72
2022/08/20 09:56:47;;;;;;;8.25;1.33;;;23.10;98.80;;;;;;5014709;28;20181;-72
2022/08/20 09:59:14;;;;;;;6.32;1.52;;;23.30;98.20;;;;;;5012776;28;20064;-72
2022/08/20 10:01:39;;;;;;;6.72;1.60;;;22.50;98.40;;;;;;5014584;28;20049;-72
2022/08/20 10:04:05;;;;;;;6.50;1.38;;;23.60;98.50;;;;;;5012559;28;20034;-73
2022/08/20 10:06:31;;;;;;;10.27;1.50;;;23.10;97.80;;;;;;5013007;28;20520;-72
2022/08/20 10:08:56;;;;;;;5.43;1.52;;;23.30;98.00;;;;;;5012939;28;20041;-72
2022/08/20 10:11:22;;;;;;;10.27;1.60;;;23.60;98.20;;;;;;5013287;28;20037;-72
2022/08/20 10:13:48;;;;;;;8.23;1.23;;;22.80;97.50;;;;;;5012718;28;20037;-73
2022/08/20 10:16:13;;;;;;;9.15;1.27;;;22.70;97.90;;;;;;5012724;28;20099;-71
2022/08/20 10:18:39;;;;;;;4.82;1.42;;;22.20;98.00;;;;;;5012517;28;20478;-71
2022/08/20 10:21:10;;;;;;;6.55;2.05;;;22.10;98.00;;;;;;5012847;28;20038;-72
2022/08/20 10:23:35;;;;;;;8.65;2.25;;;22.20;98.20;;;;;;4990023;28;20039;-72
2022/08/20 10:26:01;;;;;;;8.02;2.15;;;23.60;98.80;;;;;;5006734;28;20089;-72
2022/08/20 10:28:27;;;;;;;5.97;1.33;;;21.90;98.70;;;;;;5010387;28;20045;-71
2022/08/20 10:30:52;;;;;;;7.25;1.35;;;22.10;98.80;;;;;;5002253;28;20037;-72
2022/08/20 10:33:18;;;;;;;10.88;1.80;;;22.50;97.90;;;;;;4998095;28;20050;-71
2022/08/20 10:35:44;;;;;;;6.47;1.58;;;24.30;97.90;;;;;;4998804;28;20041;-71
2022/08/20 10:38:10;;;;;;;7.63;2.85;;;23.10;97.60;;;;;;5002386;28;20048;-72
2022/08/20 10:40:35;;;;;;;4.18;1.48;;;23.50;96.90;;;;;;5012565;28;20057;-74
2022/08/20 10:43:01;;;;;;;5.90;1.45;;;22.90;97.20;;;;;;5001184;28;20723;-72
2022/08/20 10:45:27;;;;;;;4.80;1.50;;;23.70;97.20;;;;;;4992401;28;20117;-72
2022/08/20 10:47:53;;;;;;;7.68;1.42;;;23.50;97.70;;;;;;4992178;28;20080;-71
2022/08/20 10:50:18;;;;;;;5.32;1.48;;;22.50;97.50;;;;;;4992094;28;20046;-73
2022/08/20 10:52:45;;;;;;;5.72;1.70;;;22.30;97.50;;;;;;4992245;28;20045;-74
2022/08/20 10:55:10;;;;;;;4.75;1.50;;;23.30;97.70;;;;;;5002097;28;20092;-73
2022/08/20 10:57:38;;;;;;;6.50;1.88;;;22.10;97.80;;;;;;4998929;28;20035;-73
2022/08/20 11:00:07;;;;;;;7.13;1.48;;;22.40;97.80;;;;;;4990286;28;20492;-72
2022/08/20 11:02:33;;;;;;;5.97;1.30;;;22.40;98.30;;;;;;4991818;28;20042;-72
2022/08/20 11:04:58;;;;;;;8.15;1.15;;;22.30;97.60;;;;;;4991603;28;20038;-72
2022/08/20 11:07:29;;;;;;;5.13;1.33;;;22.20;97.60;;;;;;5002170;28;20356;-72
2022/08/20 11:09:56;;;;;;;6.88;1.60;;;22.80;98.20;;;;;;4992345;28;20173;-73
2022/08/20 11:12:22;;;;;;;6.35;1.73;;;22.50;97.90;;;;;;4994239;28;20504;-72
2022/08/20 11:14:50;;;;;;;8.73;1.55;;;23.10;97.90;;;;;;5006340;28;20038;-72
2022/08/20 11:17:24;;;;;;;7.65;1.85;;;23.30;97.50;;;;;;5011104;28;20409;-72
2022/08/20 11:19:50;;;;;;;5.57;1.20;;;23.30;97.80;;;;;;5005927;28;20088;-73
2022/08/20 11:22:16;;;;;;;6.88;1.90;;;23.90;97.60;;;;;;4991689;28;20539;-72
2022/08/20 11:24:42;;;;;;;9.82;1.67;;;23.80;96.80;;;;;;5001085;28;20042;-72
2022/08/20 11:27:09;;;;;;;6.32;1.83;;;24.40;96.70;;;;;;4995377;28;20046;-72
2022/08/20 11:29:36;;;;;;;7.00;1.50;;;23.50;97.10;;;;;;5010936;28;20415;-74
2022/08/20 11:32:03;;;;;;;5.38;1.05;;;23.60;96.90;;;;;;5010350;28;20069;-72
2022/08/20 11:34:29;;;;;;;7.70;1.80;;;23.30;96.70;;;;;;4994382;28;20096;-73
2022/08/20 11:36:55;;;;;;;9.80;1.27;;;24.10;96.60;;;;;;4998413;28;20444;-72
2022/08/20 11:39:21;;;;;;;7.68;1.40;;;23.40;96.00;;;;;;4992666;28;20038;-72
2022/08/20 11:41:46;;;;;;;11.60;2.13;;;23.20;96.10;;;;;;4995743;28;20045;-72
2022/08/20 11:44:12;;;;;;;14.73;1.90;;;23.20;96.50;;;;;;5010255;28;20121;-72
2022/08/20 11:46:38;;;;;;;8.27;1.45;;;23.50;96.50;;;;;;5011832;28;20038;-73
2022/08/20 11:49:03;;;;;;;6.95;1.48;;;23.00;95.90;;;;;;5010362;28;20042;-72
2022/08/20 11:51:29;;;;;;;4.70;1.35;;;23.70;96.60;;;;;;4990758;28;20034;-72
2022/08/20 11:53:55;;;;;;;5.75;1.50;;;22.70;96.40;;;;;;4992462;28;20092;-72
2022/08/20 11:56:20;;;;;;;8.50;1.95;;;23.70;96.90;;;;;;4992014;28;20076;-72
2022/08/20 11:58:46;;;;;;;6.10;1.55;;;23.90;96.90;;;;;;4991358;28;20078;-72
2022/08/20 12:01:12;;;;;;;6.97;1.92;;;23.30;96.00;;;;;;4992686;28;20125;-72
2022/08/20 12:03:38;;;;;;;6.07;1.38;;;25.60;96.40;;;;;;5000611;28;20039;-72
2022/08/20 12:06:03;;;;;;;3.67;1.30;;;25.00;96.30;;;;;;4991268;28;20121;-72
2022/08/20 12:08:29;;;;;;;10.15;1.88;;;24.30;95.70;;;;;;4997161;28;20048;-73
2022/08/20 12:10:57;;;;;;;7.15;2.20;;;25.90;95.30;;;;;;4991234;28;20415;-72
2022/08/20 12:13:24;;;;;;;5.20;1.40;;;24.40;95.70;;;;;;5002123;28;20038;-70
2022/08/20 12:15:52;;;;;;;6.30;1.85;;;24.90;96.10;;;;;;5001991;28;20399;-73
2022/08/20 12:18:18;;;;;;;5.05;1.73;;;25.10;95.50;;;;;;4998820;28;20123;-73
2022/08/20 12:20:43;;;;;;;5.90;1.40;;;25.00;95.00;;;;;;4993124;28;20062;-72
2022/08/20 12:23:09;;;;;;;4.38;1.33;;;24.70;95.50;;;;;;4991977;28;20042;-72
2022/08/20 12:25:34;;;;;;;4.80;1.70;;;25.90;95.40;;;;;;4990404;28;20097;-72
2022/08/20 12:28:00;;;;;;;5.07;1.40;;;24.50;94.80;;;;;;4999747;28;20052;-72
2022/08/20 12:30:26;;;;;;;5.85;1.38;;;25.50;94.50;;;;;;4993799;28;20064;-72
2022/08/20 12:32:51;;;;;;;6.65;1.90;;;25.00;94.70;;;;;;5011151;28;20491;-72
2022/08/20 12:35:18;;;;;;;10.57;1.85;;;25.30;94.90;;;;;;5011570;28;20499;-73
2022/08/20 12:37:45;;;;;;;6.78;1.58;;;24.90;94.80;;;;;;5005093;28;20042;-73
2022/08/20 12:40:22;;;;;;;9.05;2.03;;;24.90;94.90;;;;;;5002271;28;20105;-72
2022/08/20 12:42:48;;;;;;;6.15;1.70;;;24.50;95.00;;;;;;4990668;28;20439;-73
2022/08/20 12:45:14;;;;;;;4.45;1.65;;;24.30;95.30;;;;;;4999616;28;20030;-73
2022/08/20 12:47:43;;;;;;;7.95;1.77;;;24.20;95.60;;;;;;4983385;28;20500;-72
2022/08/20 12:50:22;;;;;;;4.82;1.80;;;24.60;95.70;;;;;;5001076;28;21304;-73
2022/08/20 12:52:48;;;;;;;8.43;1.98;;;24.90;95.70;;;;;;5008911;28;20495;-70